sensor_id;sensor_type;location;lat;lon;timestamp;pressure;altitude;pressure_sealevel;temperature;humidity
53270;BME280;39159;45.634;9.420;2022-12-18T00:02:13;99950.91;;;4.18;100.00
53270;BME280;39159;45.634;9.420;2022-12-18T00:04:38;99962.78;;;4.17;100.00
53270;BME280;39159;45.634;9.420;2022-12-18T00:07:03;99967.38;;;4.16;100.00
53270;BME280;39159;45.634;9.420;2022-12-18T00:09:29;99960.31;;;4.15;100.00
53270;BME280;39159;45.634;9.420;2022-12-18T00:11:54;99957.63;;;4.15;100.00
53270;BME280;39159;45.634;9.420;2022-12-18T00:14:20;99960.31;;;4.15;100.00
53270;BME280;39159;45.634;9.420;2022-12-18T00:16:46;99956.81;;;4.14;100.00
53270;BME280;39159;45.634;9.420;2022-12-18T00:19:12;99967.59;;;4.14;100.00
53270;BME280;39159;45.634;9.420;2022-12-18T00:21:38;99973.59;;;4.17;100.00
53270;BME280;39159;45.634;9.420;2022-12-18T00:24:04;99967.38;;;4.16;100.00
53270;BME280;39159;45.634;9.420;2022-12-18T00:26:31;99974.19;;;4.19;100.00
53270;BME280;39159;45.634;9.420;2022-12-18T00:29:10;99971.47;;;4.19;100.00
53270;BME280;39159;45.634;9.420;2022-12-18T00:31:36;99975.56;;;4.21;100.00
53270;BME280;39159;45.634;9.420;2022-12-18T00:34:03;99973.69;;;4.22;100.00
53270;BME280;39159;45.634;9.420;2022-12-18T00:36:31;99973.47;;;4.23;100.00
53270;BME280;39159;45.634;9.420;2022-12-18T00:38:58;99980.47;;;4.24;100.00
53270;BME280;39159;45.634;9.420;2022-12-18T00:41:24;99984.25;;;4.23;100.00
53270;BME280;39159;45.634;9.420;2022-12-18T00:44:11;99994.84;;;4.25;100.00
53270;BME280;39159;45.634;9.420;2022-12-18T00:46:37;99992.38;;;4.23;100.00
53270;BME280;39159;45.634;9.420;2022-12-18T00:49:03;99991.06;;;4.26;100.00
53270;BME280;39159;45.634;9.420;2022-12-18T00:51:29;100002.94;;;4.25;100.00
53270;BME280;39159;45.634;9.420;2022-12-18T00:53:54;99999.41;;;4.24;100.00
53270;BME280;39159;45.634;9.420;2022-12-18T00:56:19;100011.88;;;4.25;100.00
53270;BME280;39159;45.634;9.420;2022-12-18T00:58:45;100013.75;;;4.25;100.00
53270;BME280;39159;45.634;9.420;2022-12-18T01:01:10;100011.88;;;4.25;100.00
53270;BME280;39159;45.634;9.420;2022-12-18T01:03:36;100019.38;;;4.23;100.00
53270;BME280;39159;45.634;9.420;2022-12-18T01:06:11;100013.97;;;4.23;100.00
53270;BME280;39159;45.634;9.420;2022-12-18T01:08:38;100021.84;;;4.25;100.00
53270;BME280;39159;45.634;9.420;2022-12-18T01:11:22;100024.31;;;4.26;100.00
53270;BME280;39159;45.634;9.420;2022-12-18T01:13:48;100027.81;;;4.27;100.00
53270;BME280;39159;45.634;9.420;2022-12-18T01:16:16;100035.09;;;4.26;100.00
53270;BME280;39159;45.634;9.420;2022-12-18T01:18:42;100039.47;;;4.27;100.00
53270;BME280;39159;45.634;9.420;2022-12-18T01:21:12;100033.00;;;4.28;100.00
53270;BME280;39159;45.634;9.420;2022-12-18T01:23:38;100040.28;;;4.28;100.00
53270;BME280;39159;45.634;9.420;2022-12-18T01:26:05;100045.47;;;4.29;100.00
53270;BME280;39159;45.634;9.420;2022-12-18T01:28:30;100046.03;;;4.31;100.00
53270;BME280;39159;45.634;9.420;2022-12-18T01:30:56;100055.78;;;4.32;100.00
53270;BME280;39159;45.634;9.420;2022-12-18T01:33:21;100054.97;;;4.32;100.00
53270;BME280;39159;45.634;9.420;2022-12-18T01:35:46;100056.84;;;4.31;100.00
53270;BME280;39159;45.634;9.420;2022-12-18T01:38:12;100071.41;;;4.30;100.00
53270;BME280;39159;45.634;9.420;2022-12-18T01:40:37;100075.19;;;4.29;100.00
53270;BME280;39159;45.634;9.420;2022-12-18T01:43:03;100079.75;;;4.29;100.00
53270;BME280;39159;45.634;9.420;2022-12-18T01:45:30;100080.22;;;4.26;100.00
53270;BME280;39159;45.634;9.420;2022-12-18T01:48:03;100082.72;;;4.27;100.00
53270;BME280;39159;45.634;9.420;2022-12-18T01:50:39;100084.81;;;4.25;100.00
53270;BME280;39159;45.634;9.420;2022-12-18T01:53:10;100079.66;;;4.24;100.00
53270;BME280;39159;45.634;9.420;2022-12-18T01:55:40;100091.53;;;4.23;100.00
53270;BME280;39159;45.634;9.420;2022-12-18T01:58:08;100092.78;;;4.20;100.00
53270;BME280;39159;45.634;9.420;2022-12-18T02:00:34;100091.53;;;4.23;100.00
53270;BME280;39159;45.634;9.420;2022-12-18T02:02:59;100087.97;;;4.22;100.00
53270;BME280;39159;45.634;9.420;2022-12-18T02:05:47;100090.69;;;4.22;100.00
53270;BME280;39159;45.634;9.420;2022-12-18T02:11:20;100091.75;;;4.21;100.00
53270;BME280;39159;45.634;9.420;2022-12-18T02:14:07;100094.47;;;4.21;100.00
53270;BME280;39159;45.634;9.420;2022-12-18T02:16:46;100095.75;;;4.19;100.00
53270;BME280;39159;45.634;9.420;2022-12-18T02:19:36;100096.81;;;4.18;100.00
53270;BME280;39159;45.634;9.420;2022-12-18T02:22:50;100101.97;;;4.19;100.00
53270;BME280;39159;45.634;9.420;2022-12-18T02:27:56;100099.75;;;4.16;100.00
53270;BME280;39159;45.634;9.420;2022-12-18T02:30:26;100100.34;;;4.18;100.00
53270;BME280;39159;45.634;9.420;2022-12-18T02:32:55;100100.34;;;4.18;100.00
53270;BME280;39159;45.634;9.420;2022-12-18T02:35:24;100103.59;;;4.20;100.00
53270;BME280;39159;45.634;9.420;2022-12-18T02:37:51;100095.50;;;4.20;100.00
53270;BME280;39159;45.634;9.420;2022-12-18T02:40:19;100088.47;;;4.19;100.00
53270;BME280;39159;45.634;9.420;2022-12-18T02:42:46;100083.88;;;4.20;100.00
53270;BME280;39159;45.634;9.420;2022-12-18T02:45:11;100090.09;;;4.20;100.00
53270;BME280;39159;45.634;9.420;2022-12-18T02:47:39;100091.97;;;4.20;100.00
53270;BME280;39159;45.634;9.420;2022-12-18T02:53:24;100105.97;;;4.17;100.00
53270;BME280;39159;45.634;9.420;2022-12-18T02:56:24;100110.78;;;4.14;100.00
53270;BME280;39159;45.634;9.420;2022-12-18T02:59:13;100107.50;;;4.12;100.00
53270;BME280;39159;45.634;9.420;2022-12-18T03:04:39;100129.13;;;4.12;100.00
53270;BME280;39159;45.634;9.420;2022-12-18T03:07:11;100126.41;;;4.12;100.00
53270;BME280;39159;45.634;9.420;2022-12-18T03:09:43;100133.31;;;4.20;100.00
53270;BME280;39159;45.634;9.420;2022-12-18T03:12:34;100137.47;;;4.23;100.00
53270;BME280;39159;45.634;9.420;2022-12-18T03:15:11;100132.28;;;4.21;100.00
53270;BME280;39159;45.634;9.420;2022-12-18T03:17:42;100138.72;;;4.20;100.00
53270;BME280;39159;45.634;9.420;2022-12-18T03:20:13;100141.44;;;4.20;100.00
53270;BME280;39159;45.634;9.420;2022-12-18T03:22:42;100140.88;;;4.18;100.00
53270;BME280;39159;45.634;9.420;2022-12-18T03:25:12;100147.09;;;4.19;100.00
53270;BME280;39159;45.634;9.420;2022-12-18T03:27:42;100141.69;;;4.19;100.00
53270;BME280;39159;45.634;9.420;2022-12-18T03:30:10;100146.84;;;4.20;100.00
53270;BME280;39159;45.634;9.420;2022-12-18T03:35:29;100147.69;;;4.21;100.00
53270;BME280;39159;45.634;9.420;2022-12-18T03:37:56;100152.00;;;4.22;100.00
53270;BME280;39159;45.634;9.420;2022-12-18T03:40:26;100148.50;;;4.21;100.00
53270;BME280;39159;45.634;9.420;2022-12-18T03:43:19;100152.81;;;4.22;100.00
53270;BME280;39159;45.634;9.420;2022-12-18T03:45:53;100142.03;;;4.22;100.00
53270;BME280;39159;45.634;9.420;2022-12-18T03:48:30;100144.72;;;4.22;100.00
53270;BME280;39159;45.634;9.420;2022-12-18T03:51:01;100146.84;;;4.20;100.00
53270;BME280;39159;45.634;9.420;2022-12-18T03:53:51;100146.28;;;4.18;100.00
53270;BME280;39159;45.634;9.420;2022-12-18T03:56:20;100149.22;;;4.17;100.00
53270;BME280;39159;45.634;9.420;2022-12-18T03:58:48;100161.66;;;4.18;100.00
53270;BME280;39159;45.634;9.420;2022-12-18T04:01:16;100160.25;;;4.15;100.00
53270;BME280;39159;45.634;9.420;2022-12-18T04:03:44;100159.66;;;4.13;100.00
53270;BME280;39159;45.634;9.420;2022-12-18T04:06:11;100166.56;;;4.09;100.00
53270;BME280;39159;45.634;9.420;2022-12-18T04:08:38;100177.28;;;4.04;100.00
53270;BME280;39159;45.634;9.420;2022-12-18T04:11:05;100176.09;;;4.00;100.00
53270;BME280;39159;45.634;9.420;2022-12-18T04:13:36;100170.69;;;4.00;100.00
53270;BME280;39159;45.634;9.420;2022-12-18T04:16:02;100171.75;;;3.99;100.00
53270;BME280;39159;45.634;9.420;2022-12-18T04:18:27;100166.81;;;3.95;100.00
53270;BME280;39159;45.634;9.420;2022-12-18T04:20:53;100170.81;;;3.93;100.00
53270;BME280;39159;45.634;9.420;2022-12-18T04:23:18;100172.22;;;3.95;100.00
53270;BME280;39159;45.634;9.420;2022-12-18T04:25:44;100167.66;;;3.96;100.00
53270;BME280;39159;45.634;9.420;2022-12-18T04:28:10;100165.28;;;4.00;100.00
53270;BME280;39159;45.634;9.420;2022-12-18T04:30:35;100176.91;;;4.00;100.00
53270;BME280;39159;45.634;9.420;2022-12-18T04:33:01;100179.28;;;3.97;100.00
53270;BME280;39159;45.634;9.420;2022-12-18T04:35:26;100180.69;;;3.87;100.00
53270;BME280;39159;45.634;9.420;2022-12-18T04:37:52;100195.81;;;3.88;100.00
53270;BME280;39159;45.634;9.420;2022-12-18T04:40:17;100197.69;;;3.88;100.00
53270;BME280;39159;45.634;9.420;2022-12-18T04:42:43;100197.13;;;3.86;100.00
53270;BME280;39159;45.634;9.420;2022-12-18T04:45:09;100201.69;;;3.85;100.00
53270;BME280;39159;45.634;9.420;2022-12-18T04:47:34;100215.19;;;3.85;100.00
53270;BME280;39159;45.634;9.420;2022-12-18T04:50:00;100216.25;;;3.84;100.00
53270;BME280;39159;45.634;9.420;2022-12-18T04:52:25;100217.69;;;3.87;100.00
53270;BME280;39159;45.634;9.420;2022-12-18T04:54:50;100224.94;;;3.86;100.00
53270;BME280;39159;45.634;9.420;2022-12-18T04:57:16;100216.13;;;3.91;100.00
53270;BME280;39159;45.634;9.420;2022-12-18T04:59:43;100222.97;;;3.93;100.00
53270;BME280;39159;45.634;9.420;2022-12-18T05:02:09;100217.09;;;3.97;100.00
53270;BME280;39159;45.634;9.420;2022-12-18T05:04:34;100224.38;;;3.96;100.00
53270;BME280;39159;45.634;9.420;2022-12-18T05:07:00;100230.59;;;3.97;100.00
53270;BME280;39159;45.634;9.420;2022-12-18T05:09:25;100239.75;;;3.95;100.00
53270;BME280;39159;45.634;9.420;2022-12-18T05:11:51;100238.91;;;3.95;100.00
53270;BME280;39159;45.634;9.420;2022-12-18T05:14:16;100252.44;;;3.95;100.00
53270;BME280;39159;45.634;9.420;2022-12-18T05:16:42;100259.50;;;3.96;100.00
53270;BME280;39159;45.634;9.420;2022-12-18T05:19:07;100253.25;;;3.95;100.00
53270;BME280;39159;45.634;9.420;2022-12-18T05:21:32;100257.00;;;3.94;100.00
53270;BME280;39159;45.634;9.420;2022-12-18T05:23:58;100250.19;;;3.92;100.00
53270;BME280;39159;45.634;9.420;2022-12-18T05:26:23;100261.59;;;3.94;100.00
53270;BME280;39159;45.634;9.420;2022-12-18T05:28:49;100267.81;;;3.94;100.00
53270;BME280;39159;45.634;9.420;2022-12-18T05:31:14;100272.16;;;3.95;100.00
53270;BME280;39159;45.634;9.420;2022-12-18T05:33:40;100268.88;;;3.93;100.00
53270;BME280;39159;45.634;9.420;2022-12-18T05:36:07;100269.22;;;3.85;100.00
53270;BME280;39159;45.634;9.420;2022-12-18T05:38:34;100268.13;;;3.86;100.00
53270;BME280;39159;45.634;9.420;2022-12-18T05:41:00;100261.56;;;3.82;100.00
53270;BME280;39159;45.634;9.420;2022-12-18T05:43:26;100282.13;;;3.83;100.00
53270;BME280;39159;45.634;9.420;2022-12-18T05:45:52;100280.22;;;3.84;100.00
53270;BME280;39159;45.634;9.420;2022-12-18T05:48:18;100286.44;;;3.84;100.00
53270;BME280;39159;45.634;9.420;2022-12-18T05:50:46;100291.25;;;3.82;100.00
53270;BME280;39159;45.634;9.420;2022-12-18T05:53:13;100288.00;;;3.80;100.00
53270;BME280;39159;45.634;9.420;2022-12-18T05:55:40;100291.25;;;3.82;100.00
53270;BME280;39159;45.634;9.420;2022-12-18T05:58:07;100289.41;;;3.83;100.00
53270;BME280;39159;45.634;9.420;2022-12-18T06:00:35;100296.44;;;3.84;100.00
53270;BME280;39159;45.634;9.420;2022-12-18T06:03:05;100295.84;;;3.82;100.00
53270;BME280;39159;45.634;9.420;2022-12-18T06:05:35;100307.94;;;3.79;100.00
53270;BME280;39159;45.634;9.420;2022-12-18T06:08:01;100313.81;;;3.76;100.00
53270;BME280;39159;45.634;9.420;2022-12-18T06:10:27;100312.13;;;3.75;100.00
53270;BME280;39159;45.634;9.420;2022-12-18T06:12:52;100309.22;;;3.77;100.00
53270;BME280;39159;45.634;9.420;2022-12-18T06:15:18;100312.50;;;3.79;100.00
53270;BME280;39159;45.634;9.420;2022-12-18T06:17:43;100310.63;;;3.79;100.00
53270;BME280;39159;45.634;9.420;2022-12-18T06:20:09;100316.03;;;3.79;100.00
53270;BME280;39159;45.634;9.420;2022-12-18T06:22:34;100320.63;;;3.79;100.00
53270;BME280;39159;45.634;9.420;2022-12-18T06:25:00;100316.84;;;3.80;100.00
53270;BME280;39159;45.634;9.420;2022-12-18T06:27:25;100316.03;;;3.79;100.00
53270;BME280;39159;45.634;9.420;2022-12-18T06:29:51;100317.91;;;3.79;100.00
53270;BME280;39159;45.634;9.420;2022-12-18T06:32:16;100326.00;;;3.79;100.00
53270;BME280;39159;45.634;9.420;2022-12-18T06:34:42;100325.19;;;3.78;100.00
53270;BME280;39159;45.634;9.420;2022-12-18T06:37:07;100333.31;;;3.78;100.00
53270;BME280;39159;45.634;9.420;2022-12-18T06:39:33;100328.72;;;3.79;100.00
53270;BME280;39159;45.634;9.420;2022-12-18T06:41:58;100328.94;;;3.77;100.00
53270;BME280;39159;45.634;9.420;2022-12-18T06:44:23;100339.28;;;3.80;100.00
53270;BME280;39159;45.634;9.420;2022-12-18T06:46:49;100341.16;;;3.80;100.00
53270;BME280;39159;45.634;9.420;2022-12-18T06:49:15;100331.41;;;3.79;100.00
53270;BME280;39159;45.634;9.420;2022-12-18T06:51:41;100341.16;;;3.80;100.00
53270;BME280;39159;45.634;9.420;2022-12-18T06:54:07;100348.31;;;3.74;100.00
53270;BME280;39159;45.634;9.420;2022-12-18T06:56:32;100354.41;;;3.69;100.00
53270;BME280;39159;45.634;9.420;2022-12-18T06:58:57;100354.81;;;3.66;100.00
53270;BME280;39159;45.634;9.420;2022-12-18T07:01:23;100346.50;;;3.68;100.00
53270;BME280;39159;45.634;9.420;2022-12-18T07:03:53;100352.50;;;3.70;100.00
53270;BME280;39159;45.634;9.420;2022-12-18T07:06:21;100347.94;;;3.70;100.00
53270;BME280;39159;45.634;9.420;2022-12-18T07:08:48;100368.03;;;3.74;100.00
53270;BME280;39159;45.634;9.420;2022-12-18T07:11:15;100363.94;;;3.84;100.00
53270;BME280;39159;45.634;9.420;2022-12-18T07:13:40;100375.94;;;3.88;100.00
53270;BME280;39159;45.634;9.420;2022-12-18T07:16:17;100378.44;;;3.89;100.00
53270;BME280;39159;45.634;9.420;2022-12-18T07:18:43;100380.88;;;3.91;100.00
53270;BME280;39159;45.634;9.420;2022-12-18T07:21:11;100390.22;;;4.07;100.00
53270;BME280;39159;45.634;9.420;2022-12-18T07:23:37;100388.75;;;4.23;100.00
53270;BME280;39159;45.634;9.420;2022-12-18T07:26:11;100402.19;;;4.29;100.00
53270;BME280;39159;45.634;9.420;2022-12-18T07:28:38;100408.41;;;4.30;100.00
53270;BME280;39159;45.634;9.420;2022-12-18T07:31:15;100409.69;;;4.27;100.00
53270;BME280;39159;45.634;9.420;2022-12-18T07:33:41;100412.19;;;4.41;100.00
53270;BME280;39159;45.634;9.420;2022-12-18T07:36:08;100417.22;;;4.37;100.00
53270;BME280;39159;45.634;9.420;2022-12-18T07:38:35;100423.31;;;4.32;100.00
53270;BME280;39159;45.634;9.420;2022-12-18T07:41:06;100430.13;;;4.35;100.00
53270;BME280;39159;45.634;9.420;2022-12-18T07:43:32;100435.09;;;4.38;100.00
53270;BME280;39159;45.634;9.420;2022-12-18T07:45:57;100445.94;;;4.50;100.00
53270;BME280;39159;45.634;9.420;2022-12-18T07:48:23;100450.03;;;4.41;100.00
53270;BME280;39159;45.634;9.420;2022-12-18T07:50:48;100454.38;;;4.42;100.00
53270;BME280;39159;45.634;9.420;2022-12-18T07:53:13;100453.09;;;4.44;100.00
53270;BME280;39159;45.634;9.420;2022-12-18T07:55:40;100459.09;;;4.46;100.00
53270;BME280;39159;45.634;9.420;2022-12-18T07:58:07;100472.28;;;4.54;100.00
53270;BME280;39159;45.634;9.420;2022-12-18T08:00:32;100457.56;;;4.50;100.00
53270;BME280;39159;45.634;9.420;2022-12-18T08:02:58;100472.88;;;4.56;100.00
53270;BME280;39159;45.634;9.420;2022-12-18T08:05:23;100475.59;;;4.56;100.00
53270;BME280;39159;45.634;9.420;2022-12-18T08:07:49;100473.69;;;4.57;100.00
53270;BME280;39159;45.634;9.420;2022-12-18T08:10:14;100475.09;;;4.60;100.00
53270;BME280;39159;45.634;9.420;2022-12-18T08:12:40;100479.22;;;4.62;100.00
53270;BME280;39159;45.634;9.420;2022-12-18T08:15:06;100487.59;;;4.72;100.00
53270;BME280;39159;45.634;9.420;2022-12-18T08:17:32;100495.25;;;4.75;100.00
53270;BME280;39159;45.634;9.420;2022-12-18T08:19:57;100498.06;;;4.69;100.00
53270;BME280;39159;45.634;9.420;2022-12-18T08:22:23;100495.22;;;4.64;100.00
53270;BME280;39159;45.634;9.420;2022-12-18T08:24:48;100500.25;;;4.60;100.00
53270;BME280;39159;45.634;9.420;2022-12-18T08:27:13;100500.84;;;4.62;100.00
53270;BME280;39159;45.634;9.420;2022-12-18T08:29:39;100505.44;;;4.62;100.00
53270;BME280;39159;45.634;9.420;2022-12-18T08:32:04;100506.75;;;4.59;100.00
53270;BME280;39159;45.634;9.420;2022-12-18T08:34:30;100506.00;;;4.52;100.00
53270;BME280;39159;45.634;9.420;2022-12-18T08:36:55;100506.63;;;4.54;100.00
53270;BME280;39159;45.634;9.420;2022-12-18T08:39:21;100503.91;;;4.54;100.00
53270;BME280;39159;45.634;9.420;2022-12-18T08:41:46;100509.91;;;4.56;100.00
53270;BME280;39159;45.634;9.420;2022-12-18T08:44:32;100508.25;;;4.55;100.00
53270;BME280;39159;45.634;9.420;2022-12-18T08:47:05;100510.94;;;4.55;100.00
53270;BME280;39159;45.634;9.420;2022-12-18T08:49:31;100511.41;;;4.52;100.00
53270;BME280;39159;45.634;9.420;2022-12-18T08:51:56;100510.34;;;4.53;100.00
53270;BME280;39159;45.634;9.420;2022-12-18T08:54:26;100509.31;;;4.54;100.00
53270;BME280;39159;45.634;9.420;2022-12-18T08:56:51;100516.72;;;4.59;100.00
53270;BME280;39159;45.634;9.420;2022-12-18T08:59:18;100520.38;;;4.64;100.00
53270;BME280;39159;45.634;9.420;2022-12-18T09:01:44;100524.88;;;4.70;100.00
53270;BME280;39159;45.634;9.420;2022-12-18T09:04:10;100516.53;;;4.72;100.00
53270;BME280;39159;45.634;9.420;2022-12-18T09:06:36;100516.66;;;4.77;100.00
53270;BME280;39159;45.634;9.420;2022-12-18T09:09:02;100519.97;;;4.79;100.00
53270;BME280;39159;45.634;9.420;2022-12-18T09:11:29;100530.88;;;4.72;100.00
53270;BME280;39159;45.634;9.420;2022-12-18T09:13:55;100533.72;;;4.77;100.00
53270;BME280;39159;45.634;9.420;2022-12-18T09:16:22;100534.59;;;5.02;100.00
53270;BME280;39159;45.634;9.420;2022-12-18T09:18:48;100542.72;;;5.02;100.00
53270;BME280;39159;45.634;9.420;2022-12-18T09:21:16;100539.47;;;5.23;100.00
53270;BME280;39159;45.634;9.420;2022-12-18T09:23:42;100532.38;;;5.22;100.00
53270;BME280;39159;45.634;9.420;2022-12-18T09:26:07;100550.41;;;5.16;100.00
53270;BME280;39159;45.634;9.420;2022-12-18T09:28:33;100550.41;;;5.16;100.00
53270;BME280;39159;45.634;9.420;2022-12-18T09:31:04;100553.13;;;5.28;100.00
53270;BME280;39159;45.634;9.420;2022-12-18T09:33:29;100546.78;;;5.23;100.00
53270;BME280;39159;45.634;9.420;2022-12-18T09:35:55;100549.47;;;5.23;100.00
53270;BME280;39159;45.634;9.420;2022-12-18T09:38:20;100554.41;;;5.26;100.00
53270;BME280;39159;45.634;9.420;2022-12-18T09:40:56;100553.47;;;5.32;100.00
53270;BME280;39159;45.634;9.420;2022-12-18T09:43:31;100555.25;;;5.61;100.00
53270;BME280;39159;45.634;9.420;2022-12-18T09:46:01;100543.00;;;5.71;100.00
53270;BME280;39159;45.634;9.420;2022-12-18T09:48:31;100541.72;;;5.85;100.00
53270;BME280;39159;45.634;9.420;2022-12-18T09:51:02;100538.63;;;5.93;100.00
53270;BME280;39159;45.634;9.420;2022-12-18T09:53:31;100536.38;;;6.02;100.00
53270;BME280;39159;45.634;9.420;2022-12-18T09:56:00;100535.03;;;6.28;100.00
53270;BME280;39159;45.634;9.420;2022-12-18T09:58:49;100530.13;;;6.13;100.00
53270;BME280;39159;45.634;9.420;2022-12-18T10:01:21;100536.00;;;6.22;100.00
53270;BME280;39159;45.634;9.420;2022-12-18T10:03:47;100530.66;;;6.39;100.00
53270;BME280;39159;45.634;9.420;2022-12-18T10:06:36;100532.91;;;7.04;100.00
53270;BME280;39159;45.634;9.420;2022-12-18T10:19:59;100534.66;;;7.28;100.00
53270;BME280;39159;45.634;9.420;2022-12-18T10:25:22;100544.28;;;7.18;100.00
53270;BME280;39159;45.634;9.420;2022-12-18T10:27:53;100535.25;;;7.30;99.97
53270;BME280;39159;45.634;9.420;2022-12-18T10:30:22;100530.84;;;7.29;97.12
53270;BME280;39159;45.634;9.420;2022-12-18T10:32:48;100538.34;;;7.21;98.65
53270;BME280;39159;45.634;9.420;2022-12-18T10:35:31;100538.59;;;7.20;99.05
53270;BME280;39159;45.634;9.420;2022-12-18T10:40:56;100531.19;;;7.32;97.30
53270;BME280;39159;45.634;9.420;2022-12-18T10:46:14;100523.94;;;7.38;100.00
53270;BME280;39159;45.634;9.420;2022-12-18T10:51:29;100528.09;;;7.62;96.68
53270;BME280;39159;45.634;9.420;2022-12-18T10:53:59;100532.41;;;7.58;100.00
53270;BME280;39159;45.634;9.420;2022-12-18T10:56:27;100524.25;;;7.97;100.00
53270;BME280;39159;45.634;9.420;2022-12-18T10:59:14;100527.44;;;8.60;100.00
53270;BME280;39159;45.634;9.420;2022-12-18T11:02:00;100527.25;;;8.67;97.27
53270;BME280;39159;45.634;9.420;2022-12-18T11:04:26;100526.19;;;8.68;97.99
53270;BME280;39159;45.634;9.420;2022-12-18T11:07:03;100529.25;;;9.04;97.60
53270;BME280;39159;45.634;9.420;2022-12-18T11:09:35;100525.56;;;9.20;95.87
53270;BME280;39159;45.634;9.420;2022-12-18T11:12:04;100520.63;;;9.49;96.39
53270;BME280;39159;45.634;9.420;2022-12-18T11:14:52;100527.44;;;9.52;94.12
53270;BME280;39159;45.634;9.420;2022-12-18T11:17:38;100528.94;;;9.70;87.63
53270;BME280;39159;45.634;9.420;2022-12-18T11:20:07;100530.47;;;9.55;87.56
53270;BME280;39159;45.634;9.420;2022-12-18T11:23:00;100541.47;;;9.71;88.13
53270;BME280;39159;45.634;9.420;2022-12-18T11:25:27;100538.03;;;9.91;82.11
53270;BME280;39159;45.634;9.420;2022-12-18T11:27:59;100537.53;;;9.99;82.55
53270;BME280;39159;45.634;9.420;2022-12-18T11:30:33;100537.06;;;10.12;81.33
53270;BME280;39159;45.634;9.420;2022-12-18T11:33:09;100536.50;;;10.05;79.97
53270;BME280;39159;45.634;9.420;2022-12-18T11:38:30;100529.69;;;10.18;94.75
53270;BME280;39159;45.634;9.420;2022-12-18T11:41:02;100532.31;;;9.87;97.12
53270;BME280;39159;45.634;9.420;2022-12-18T11:43:34;100524.44;;;9.96;97.41
53270;BME280;39159;45.634;9.420;2022-12-18T11:46:09;100524.91;;;9.83;96.97
53270;BME280;39159;45.634;9.420;2022-12-18T11:48:44;100524.50;;;10.11;95.19
53270;BME280;39159;45.634;9.420;2022-12-18T11:51:18;100510.81;;;10.01;95.43
53270;BME280;39159;45.634;9.420;2022-12-18T11:53:46;100513.16;;;10.35;94.44
53270;BME280;39159;45.634;9.420;2022-12-18T11:56:30;100505.06;;;10.61;92.65
53270;BME280;39159;45.634;9.420;2022-12-18T12:07:34;100496.72;;;10.20;92.24
53270;BME280;39159;45.634;9.420;2022-12-18T12:16:17;100472.41;;;10.08;93.00
53270;BME280;39159;45.634;9.420;2022-12-18T12:21:40;100485.63;;;10.36;93.07
53270;BME280;39159;45.634;9.420;2022-12-18T12:37:47;100472.78;;;10.42;85.33
53270;BME280;39159;45.634;9.420;2022-12-18T12:40:18;100475.25;;;10.39;85.24
53270;BME280;39159;45.634;9.420;2022-12-18T12:42:48;100468.97;;;10.48;84.11
53270;BME280;39159;45.634;9.420;2022-12-18T12:45:49;100469.56;;;10.61;81.01
53270;BME280;39159;45.634;9.420;2022-12-18T12:50:46;100465.72;;;10.67;78.93
53270;BME280;39159;45.634;9.420;2022-12-18T12:53:26;100472.25;;;10.55;78.17
53270;BME280;39159;45.634;9.420;2022-12-18T12:55:53;100469.28;;;10.62;80.15
53270;BME280;39159;45.634;9.420;2022-12-18T12:58:36;100469.81;;;10.59;80.67
53270;BME280;39159;45.634;9.420;2022-12-18T13:04:12;100462.41;;;10.39;80.91
53270;BME280;39159;45.634;9.420;2022-12-18T13:07:00;100459.88;;;10.12;80.80
53270;BME280;39159;45.634;9.420;2022-12-18T13:09:30;100461.13;;;9.84;83.42
53270;BME280;39159;45.634;9.420;2022-12-18T13:12:02;100461.03;;;9.68;84.46
53270;BME280;39159;45.634;9.420;2022-12-18T13:14:47;100465.94;;;9.24;86.50
53270;BME280;39159;45.634;9.420;2022-12-18T13:19:47;100457.88;;;9.02;90.84
53270;BME280;39159;45.634;9.420;2022-12-18T13:22:25;100452.63;;;8.90;91.59
53270;BME280;39159;45.634;9.420;2022-12-18T13:24:53;100452.31;;;8.86;93.08
53270;BME280;39159;45.634;9.420;2022-12-18T13:38:39;100454.34;;;8.42;100.00
53270;BME280;39159;45.634;9.420;2022-12-18T13:43:43;100449.22;;;8.45;100.00
53270;BME280;39159;45.634;9.420;2022-12-18T13:49:00;100439.72;;;8.48;100.00
53270;BME280;39159;45.634;9.420;2022-12-18T13:51:28;100448.66;;;8.43;100.00
53270;BME280;39159;45.634;9.420;2022-12-18T13:54:00;100447.94;;;8.31;100.00
53270;BME280;39159;45.634;9.420;2022-12-18T13:56:29;100445.63;;;8.18;100.00
53270;BME280;39159;45.634;9.420;2022-12-18T14:01:54;100434.59;;;8.02;100.00
53270;BME280;39159;45.634;9.420;2022-12-18T14:04:31;100439.41;;;7.95;100.00
53270;BME280;39159;45.634;9.420;2022-12-18T14:07:03;100439.22;;;7.80;100.00
53270;BME280;39159;45.634;9.420;2022-12-18T14:09:31;100447.13;;;7.81;100.00
53270;BME280;39159;45.634;9.420;2022-12-18T14:12:00;100443.03;;;7.79;100.00
53270;BME280;39159;45.634;9.420;2022-12-18T14:14:49;100455.28;;;7.81;100.00
53270;BME280;39159;45.634;9.420;2022-12-18T14:17:16;100453.00;;;7.73;100.00
53270;BME280;39159;45.634;9.420;2022-12-18T14:19:47;100453.69;;;7.63;100.00
53270;BME280;39159;45.634;9.420;2022-12-18T14:22:18;100459.94;;;7.64;100.00
53270;BME280;39159;45.634;9.420;2022-12-18T14:24:45;100459.94;;;7.64;100.00
53270;BME280;39159;45.634;9.420;2022-12-18T14:27:25;100464.56;;;7.63;100.00
53270;BME280;39159;45.634;9.420;2022-12-18T14:29:51;100464.31;;;7.65;100.00
53270;BME280;39159;45.634;9.420;2022-12-18T14:32:18;100463.41;;;7.59;100.00
53270;BME280;39159;45.634;9.420;2022-12-18T14:34:49;100454.13;;;7.55;100.00
53270;BME280;39159;45.634;9.420;2022-12-18T14:37:17;100463.84;;;7.51;100.00
53270;BME280;39159;45.634;9.420;2022-12-18T14:40:01;100463.38;;;7.37;100.00
53270;BME280;39159;45.634;9.420;2022-12-18T14:42:28;100463.97;;;7.22;100.00
53270;BME280;39159;45.634;9.420;2022-12-18T14:47:56;100476.81;;;7.10;100.00